createdAt,value
2023-03-25T00:02:16.668Z,89.13
2023-03-25T00:04:43.223Z,89.23
2023-03-25T00:07:09.657Z,88.84
2023-03-25T00:09:36.271Z,89.16
2023-03-25T00:12:02.692Z,88.55
2023-03-25T00:14:29.162Z,89.85
2023-03-25T00:16:55.586Z,89.88
2023-03-25T00:19:22.197Z,89.72
2023-03-25T00:21:50.406Z,88.71
2023-03-25T00:24:17.982Z,90.36
2023-03-25T00:26:46.120Z,90.30
2023-03-25T00:29:13.364Z,91.05
2023-03-25T00:31:40.805Z,89.97
2023-03-25T00:34:07.676Z,89.65
2023-03-25T00:36:37.556Z,91.12
2023-03-25T00:39:05.390Z,90.32
2023-03-25T00:41:32.010Z,91.75
2023-03-25T00:44:00.014Z,91.71
2023-03-25T00:46:28.364Z,91.50
2023-03-25T00:48:55.555Z,91.74
2023-03-25T00:51:22.891Z,92.27
2023-03-25T00:53:55.137Z,93.00
2023-03-25T00:56:23.580Z,93.08
2023-03-25T00:58:50.421Z,92.77
2023-03-25T01:01:23.479Z,93.26
2023-03-25T01:03:57.760Z,92.90
2023-03-25T01:06:33.188Z,91.89
2023-03-25T01:09:01.595Z,92.66
2023-03-25T01:11:30.876Z,93.30
2023-03-25T01:13:59.698Z,92.48
2023-03-25T01:16:27.268Z,93.70
2023-03-25T01:18:55.278Z,92.92
2023-03-25T01:21:22.016Z,92.55
2023-03-25T01:23:48.437Z,93.45
2023-03-25T01:26:15.444Z,92.63
2023-03-25T01:28:43.154Z,92.89
2023-03-25T01:31:11.810Z,92.93
2023-03-25T01:33:38.895Z,92.23
2023-03-25T01:36:09.722Z,92.27
2023-03-25T01:38:36.867Z,92.04
2023-03-25T01:41:04.454Z,92.25
2023-03-25T01:43:31.845Z,92.30
2023-03-25T01:45:58.344Z,91.51
2023-03-25T01:48:32.992Z,91.38
2023-03-25T01:51:05.569Z,92.00
2023-03-25T01:53:32.494Z,92.15
2023-03-25T01:56:03.062Z,92.92
2023-03-25T01:58:31.304Z,92.78
2023-03-25T02:00:57.789Z,92.70
2023-03-25T02:03:25.219Z,92.36
2023-03-25T02:06:03.597Z,92.33
2023-03-25T02:08:37.698Z,93.52
2023-03-25T02:11:06.549Z,93.16
2023-03-25T02:13:34.809Z,94.97
2023-03-25T02:16:18.656Z,95.43
2023-03-25T02:19:27.971Z,95.04
2023-03-25T02:22:14.613Z,95.05
2023-03-25T02:41:46.094Z,96.67
2023-03-25T02:44:18.040Z,96.43
2023-03-25T02:46:57.148Z,96.31
2023-03-25T02:49:32.202Z,96.65
2023-03-25T02:52:04.955Z,96.13
2023-03-25T02:54:36.923Z,95.16
2023-03-25T02:57:05.452Z,95.35
2023-03-25T02:59:33.451Z,95.43
2023-03-25T03:02:04.757Z,94.53
2023-03-25T03:04:31.465Z,96.23
2023-03-25T03:06:58.125Z,98.31
2023-03-25T03:09:37.143Z,98.75
2023-03-25T03:12:19.361Z,100.00
2023-03-25T03:14:56.204Z,100.00
2023-03-25T03:17:38.098Z,100.00
2023-03-25T03:20:32.647Z,100.00
2023-03-25T03:23:10.835Z,100.00
2023-03-25T03:25:47.076Z,100.00
2023-03-25T03:28:16.391Z,100.00
2023-03-25T03:30:49.298Z,100.00
2023-03-25T03:33:31.987Z,100.00
2023-03-25T03:36:07.085Z,100.00
2023-03-25T03:38:39.550Z,100.00
2023-03-25T03:41:09.580Z,100.00
2023-03-25T03:43:42.474Z,100.00
2023-03-25T03:46:16.550Z,100.00
2023-03-25T03:48:47.811Z,100.00
2023-03-25T03:51:29.283Z,100.00
2023-03-25T03:54:03.948Z,100.00
2023-03-25T03:56:39.222Z,100.00
2023-03-25T03:59:13.476Z,100.00
2023-03-25T04:01:47.520Z,100.00
2023-03-25T04:04:22.217Z,100.00
2023-03-25T04:06:57.937Z,100.00
2023-03-25T04:09:55.068Z,100.00
2023-03-25T04:12:26.219Z,100.00
2023-03-25T04:14:53.440Z,100.00
2023-03-25T04:17:19.892Z,100.00
2023-03-25T04:19:48.773Z,100.00
2023-03-25T04:22:18.298Z,100.00
2023-03-25T04:24:44.831Z,100.00
2023-03-25T04:27:13.579Z,100.00
2023-03-25T04:29:40.659Z,100.00
2023-03-25T04:32:08.227Z,100.00
2023-03-25T04:34:34.626Z,100.00
2023-03-25T04:37:02.074Z,100.00
2023-03-25T04:39:29.808Z,100.00
2023-03-25T04:42:03.267Z,100.00
2023-03-25T04:44:33.478Z,100.00
2023-03-25T04:47:01.916Z,100.00
2023-03-25T04:49:28.332Z,100.00
2023-03-25T04:51:55.653Z,100.00
2023-03-25T04:54:23.458Z,100.00
2023-03-25T04:56:51.657Z,100.00
2023-03-25T04:59:19.683Z,100.00
2023-03-25T05:01:46.653Z,100.00
2023-03-25T05:04:17.450Z,100.00
2023-03-25T05:06:50.550Z,100.00
2023-03-25T05:09:20.324Z,100.00
2023-03-25T05:11:46.720Z,100.00
2023-03-25T05:14:15.104Z,100.00
2023-03-25T05:16:42.137Z,100.00
2023-03-25T05:19:09.523Z,100.00
2023-03-25T05:21:37.821Z,100.00
2023-03-25T05:24:08.180Z,100.00
2023-03-25T05:26:35.240Z,100.00
2023-03-25T05:29:06.247Z,100.00
2023-03-25T05:31:32.593Z,100.00
2023-03-25T05:33:59.036Z,100.00
2023-03-25T05:36:29.644Z,100.00
2023-03-25T05:38:56.790Z,100.00
2023-03-25T05:41:32.417Z,100.00
2023-03-25T05:44:02.965Z,100.00
2023-03-25T05:46:29.748Z,100.00
2023-03-25T05:48:57.484Z,100.00
2023-03-25T05:51:25.487Z,100.00
2023-03-25T05:53:51.906Z,100.00
2023-03-25T05:56:20.125Z,100.00
2023-03-25T05:58:51.030Z,100.00
2023-03-25T06:01:31.853Z,100.00
2023-03-25T06:04:01.655Z,100.00
2023-03-25T06:06:28.641Z,100.00
2023-03-25T06:08:55.790Z,100.00
2023-03-25T06:11:22.231Z,100.00
2023-03-25T06:13:51.589Z,100.00
2023-03-25T06:16:23.385Z,100.00
2023-03-25T06:18:56.008Z,100.00
2023-03-25T06:21:23.476Z,100.00
2023-03-25T06:23:50.373Z,100.00
2023-03-25T06:26:18.004Z,100.00
2023-03-25T06:28:46.009Z,100.00
2023-03-25T06:31:26.644Z,100.00
2023-03-25T06:33:54.627Z,100.00
2023-03-25T06:36:21.073Z,100.00
2023-03-25T06:38:50.275Z,99.87
2023-03-25T06:41:20.570Z,100.00
2023-03-25T06:43:53.878Z,99.80
2023-03-25T06:46:46.573Z,100.00
2023-03-25T06:49:37.910Z,100.00
2023-03-25T06:52:04.543Z,100.00
2023-03-25T06:54:30.932Z,99.47
2023-03-25T06:56:57.370Z,100.00
2023-03-25T06:59:23.793Z,98.06
2023-03-25T07:01:50.378Z,97.51
2023-03-25T07:04:19.074Z,97.73
2023-03-25T07:06:45.986Z,94.94
2023-03-25T07:09:12.398Z,94.26
2023-03-25T07:11:38.833Z,94.36
2023-03-25T07:14:05.242Z,91.32
2023-03-25T07:16:32.051Z,91.66
2023-03-25T07:18:59.055Z,90.27
2023-03-25T07:21:26.968Z,88.05
2023-03-25T07:23:53.444Z,87.88
2023-03-25T07:26:19.841Z,87.12
2023-03-25T07:28:47.926Z,87.49
2023-03-25T07:31:16.213Z,85.82
2023-03-25T07:33:43.362Z,85.24
2023-03-25T07:36:11.997Z,83.69
2023-03-25T07:38:38.719Z,85.09
2023-03-25T07:41:14.333Z,83.33
2023-03-25T07:43:53.650Z,82.55
2023-03-25T07:46:27.633Z,83.50
2023-03-25T07:48:54.035Z,81.96
2023-03-25T07:51:20.456Z,81.97
2023-03-25T07:53:46.977Z,81.22
2023-03-25T07:56:14.701Z,80.72
2023-03-25T07:58:41.930Z,80.55
2023-03-25T08:01:08.593Z,80.40
2023-03-25T08:03:35.220Z,78.77
2023-03-25T08:06:02.468Z,79.87
2023-03-25T08:08:31.649Z,78.80
2023-03-25T08:10:58.527Z,78.49
2023-03-25T08:13:25.588Z,77.85
2023-03-25T08:15:52.319Z,78.46
2023-03-25T08:18:19.489Z,76.47
2023-03-25T08:20:46.012Z,77.13
2023-03-25T08:23:12.651Z,76.89
2023-03-25T08:25:40.952Z,76.50
2023-03-25T08:28:08.471Z,76.60
2023-03-25T08:30:38.889Z,76.88
2023-03-25T08:33:10.167Z,75.51
2023-03-25T08:35:38.124Z,75.65
2023-03-25T08:38:06.564Z,76.98
2023-03-25T08:40:36.447Z,75.96
2023-03-25T08:43:06.958Z,75.41
2023-03-25T08:45:34.850Z,75.09
2023-03-25T08:48:01.689Z,73.42
2023-03-25T08:50:28.689Z,72.69
2023-03-25T08:52:58.402Z,72.48
2023-03-25T08:55:25.766Z,71.54
2023-03-25T08:57:52.205Z,71.78
2023-03-25T09:00:24.090Z,71.43
2023-03-25T09:02:50.983Z,71.75
2023-03-25T09:05:18.246Z,71.56
2023-03-25T09:07:44.698Z,71.73
2023-03-25T09:10:12.992Z,71.52
2023-03-25T09:12:39.643Z,71.15
2023-03-25T09:15:06.607Z,72.08
2023-03-25T09:17:33.058Z,71.49
2023-03-25T09:19:59.479Z,70.56
2023-03-25T09:22:25.925Z,72.02
2023-03-25T09:24:52.400Z,71.54
2023-03-25T09:27:18.784Z,71.10
2023-03-25T09:29:45.218Z,70.94
2023-03-25T09:32:11.665Z,71.34
2023-03-25T09:34:39.000Z,69.86
2023-03-25T09:37:05.438Z,68.78
2023-03-25T09:39:31.900Z,67.31
2023-03-25T09:42:14.396Z,67.03
2023-03-25T09:45:15.430Z,65.42
2023-03-25T09:47:56.683Z,65.66
2023-03-25T09:50:25.226Z,66.72
2023-03-25T09:53:06.147Z,66.48
2023-03-25T09:55:39.038Z,67.06
2023-03-25T09:58:35.736Z,66.82
2023-03-25T10:01:27.221Z,67.25
2023-03-25T10:04:11.461Z,66.62
2023-03-25T10:06:48.740Z,66.47
2023-03-25T10:09:34.924Z,64.77
2023-03-25T10:12:16.675Z,65.54
2023-03-25T10:15:01.582Z,63.75
2023-03-25T10:17:58.148Z,63.43
2023-03-25T10:20:53.474Z,62.70
2023-03-25T10:23:30.668Z,63.12
2023-03-25T10:26:07.867Z,62.86
2023-03-25T10:28:40.455Z,64.15
2023-03-25T10:31:22.019Z,64.01
2023-03-25T10:33:56.139Z,64.88
2023-03-25T10:36:33.727Z,64.10
2023-03-25T10:39:02.027Z,64.02
2023-03-25T10:41:35.450Z,63.47
2023-03-25T10:44:02.167Z,63.19
2023-03-25T10:46:46.740Z,62.13
2023-03-25T10:49:17.359Z,62.95
2023-03-25T10:51:44.450Z,62.19
2023-03-25T10:54:13.740Z,62.26
2023-03-25T10:56:45.660Z,63.06
2023-03-25T10:59:27.974Z,62.92
2023-03-25T11:01:55.703Z,62.42
2023-03-25T11:04:35.828Z,61.58
2023-03-25T11:07:05.768Z,62.90
2023-03-25T11:09:32.725Z,62.47
2023-03-25T11:12:05.498Z,62.52
2023-03-25T11:14:40.606Z,62.34
2023-03-25T11:17:18.124Z,62.45
2023-03-25T11:19:53.711Z,62.48
2023-03-25T11:22:26.283Z,63.13
2023-03-25T11:25:00.670Z,63.06
2023-03-25T11:27:30.175Z,65.52
2023-03-25T11:30:02.801Z,66.86
2023-03-25T11:32:38.755Z,65.61
2023-03-25T11:35:14.200Z,64.83
2023-03-25T11:37:47.153Z,64.51
2023-03-25T11:40:16.399Z,63.70
2023-03-25T11:42:51.256Z,63.61
2023-03-25T11:45:46.138Z,63.11
2023-03-25T11:48:17.989Z,61.94
2023-03-25T11:50:52.202Z,62.43
2023-03-25T11:53:19.830Z,61.73
2023-03-25T11:55:53.920Z,61.32
2023-03-25T11:58:27.300Z,60.25
2023-03-25T12:01:02.196Z,59.60
2023-03-25T12:03:31.864Z,59.42
2023-03-25T12:06:06.920Z,59.28
2023-03-25T12:08:51.957Z,59.74
2023-03-25T12:11:26.381Z,58.84
2023-03-25T12:14:12.255Z,57.92
2023-03-25T12:16:50.904Z,58.35
2023-03-25T12:19:55.881Z,58.47
2023-03-25T12:22:47.179Z,58.99
2023-03-25T12:25:19.404Z,59.07
2023-03-25T12:28:05.207Z,59.40
2023-03-25T12:30:54.596Z,59.48
2023-03-25T12:33:39.661Z,60.37
2023-03-25T12:36:49.735Z,60.19
2023-03-25T12:39:43.473Z,59.79
2023-03-25T12:42:34.972Z,61.00
2023-03-25T12:45:35.343Z,61.92
2023-03-25T12:48:07.574Z,64.85
2023-03-25T12:50:50.100Z,64.36
2023-03-25T12:53:27.584Z,66.06
2023-03-25T12:56:14.168Z,67.35
2023-03-25T12:58:57.166Z,76.41
2023-03-25T13:01:36.738Z,87.46
2023-03-25T13:04:22.671Z,89.79
2023-03-25T13:07:04.700Z,91.35
2023-03-25T13:09:36.287Z,88.91
2023-03-25T13:12:07.300Z,87.60
2023-03-25T13:14:36.179Z,87.10
2023-03-25T13:17:09.053Z,90.09
2023-03-25T13:19:41.156Z,88.22
2023-03-25T13:22:20.673Z,90.23
2023-03-25T13:24:56.566Z,90.13
2023-03-25T13:27:23.547Z,93.20
2023-03-25T13:29:54.543Z,93.26
2023-03-25T13:32:25.598Z,95.39
2023-03-25T13:34:56.845Z,94.16
2023-03-25T13:37:32.029Z,96.12
2023-03-25T13:40:14.683Z,95.89
2023-03-25T13:42:49.843Z,95.86
2023-03-25T13:45:23.969Z,95.37
2023-03-25T13:47:58.360Z,98.03
2023-03-25T13:50:29.782Z,96.50
2023-03-25T13:53:14.860Z,94.48
2023-03-25T13:55:46.555Z,96.10
2023-03-25T13:58:41.454Z,94.19
2023-03-25T14:01:28.889Z,92.95
2023-03-25T14:04:18.729Z,92.11
2023-03-25T14:07:22.896Z,93.30
2023-03-25T14:10:09.044Z,92.89
2023-03-25T14:12:43.087Z,91.08
2023-03-25T14:15:19.267Z,89.88
2023-03-25T14:17:47.036Z,89.59
2023-03-25T14:20:24.376Z,90.65
2023-03-25T14:22:56.957Z,90.48
2023-03-25T14:25:34.025Z,89.69
2023-03-25T14:28:03.535Z,88.06
2023-03-25T14:30:32.384Z,87.56
2023-03-25T14:33:00.749Z,87.50
2023-03-25T14:35:33.223Z,87.82
2023-03-25T14:38:05.839Z,86.99
2023-03-25T14:40:58.917Z,85.97
2023-03-25T14:43:40.288Z,84.83
2023-03-25T14:46:19.037Z,84.27
2023-03-25T14:48:50.209Z,83.39
2023-03-25T14:51:44.662Z,80.54
2023-03-25T14:54:22.589Z,80.42
2023-03-25T14:56:55.695Z,80.33
2023-03-25T14:59:28.934Z,81.20
2023-03-25T15:02:03.135Z,79.82
2023-03-25T15:04:38.891Z,79.25
2023-03-25T15:07:12.825Z,78.93
2023-03-25T15:09:50.924Z,79.18
2023-03-25T15:12:21.450Z,78.69
2023-03-25T15:14:49.745Z,79.80
2023-03-25T15:17:47.130Z,79.24
2023-03-25T15:20:22.443Z,80.32
2023-03-25T15:23:19.913Z,80.50
2023-03-25T15:25:48.399Z,79.73
2023-03-25T15:28:40.921Z,79.14
2023-03-25T15:31:41.986Z,77.66
2023-03-25T15:34:30.740Z,77.97
2023-03-25T15:37:18.058Z,78.85
2023-03-25T15:39:59.817Z,78.31
2023-03-25T15:42:57.585Z,77.93
2023-03-25T15:46:01.578Z,77.68
2023-03-25T15:49:05.926Z,76.71
2023-03-25T15:52:11.527Z,77.49
2023-03-25T15:54:48.158Z,76.03
2023-03-25T15:57:38.142Z,76.49
2023-03-25T16:00:15.649Z,80.12
2023-03-25T16:02:59.890Z,85.73
2023-03-25T16:05:27.065Z,86.81
2023-03-25T16:07:53.974Z,92.51
2023-03-25T16:10:36.078Z,95.44
2023-03-25T16:13:05.432Z,96.04
2023-03-25T16:15:35.354Z,93.66
2023-03-25T16:18:06.171Z,91.60
2023-03-25T16:20:34.973Z,94.36
2023-03-25T16:23:03.426Z,92.60
2023-03-25T16:25:38.800Z,93.56
2023-03-25T16:28:14.129Z,91.96
2023-03-25T16:30:43.016Z,92.72
2023-03-25T16:33:10.661Z,91.13
2023-03-25T16:35:42.576Z,92.05
2023-03-25T16:38:14.644Z,92.12
2023-03-25T16:40:43.356Z,91.28
2023-03-25T16:43:22.187Z,92.47
2023-03-25T16:45:51.052Z,92.54
2023-03-25T16:48:39.654Z,91.52
2023-03-25T16:51:22.717Z,92.44
2023-03-25T16:53:53.580Z,94.11
2023-03-25T16:56:23.360Z,94.38
2023-03-25T16:59:18.704Z,92.19
2023-03-25T17:01:53.371Z,91.64
2023-03-25T17:04:22.846Z,93.97
2023-03-25T17:06:52.656Z,94.42
2023-03-25T17:09:22.680Z,94.81
2023-03-25T17:11:54.016Z,95.83
2023-03-25T17:14:24.856Z,95.27
2023-03-25T17:16:53.017Z,96.99
2023-03-25T17:19:23.040Z,95.85
2023-03-25T17:22:05.382Z,97.40
2023-03-25T17:24:41.787Z,96.14
2023-03-25T17:27:23.352Z,96.63
2023-03-25T17:29:56.264Z,97.04
2023-03-25T17:32:23.458Z,96.87
2023-03-25T17:34:58.023Z,95.03
2023-03-25T17:37:25.799Z,95.19
2023-03-25T17:39:52.827Z,96.14
2023-03-25T17:42:24.559Z,95.79
2023-03-25T17:44:52.121Z,94.66
2023-03-25T17:47:20.365Z,94.35
2023-03-25T17:49:47.728Z,95.56
2023-03-25T17:52:14.138Z,95.76
2023-03-25T17:54:40.592Z,96.32
2023-03-25T17:57:13.918Z,96.44
2023-03-25T17:59:40.532Z,95.96
2023-03-25T18:02:15.889Z,95.68
2023-03-25T18:04:42.338Z,94.21
2023-03-25T18:07:08.738Z,94.64
2023-03-25T18:09:35.262Z,93.03
2023-03-25T18:12:01.802Z,92.98
2023-03-25T18:14:28.258Z,93.44
2023-03-25T18:16:55.476Z,92.69
2023-03-25T18:19:24.872Z,91.58
2023-03-25T18:21:52.380Z,92.61
2023-03-25T18:24:18.938Z,92.19
2023-03-25T18:26:46.773Z,91.56
2023-03-25T18:29:23.117Z,90.37
2023-03-25T18:31:50.455Z,90.98
2023-03-25T18:34:17.944Z,92.09
2023-03-25T18:36:44.793Z,92.19
2023-03-25T18:39:13.813Z,91.66
2023-03-25T18:41:41.148Z,92.54
2023-03-25T18:44:08.405Z,91.93
2023-03-25T18:46:35.391Z,91.40
2023-03-25T18:49:02.764Z,91.13
2023-03-25T18:51:30.044Z,92.19
2023-03-25T18:53:56.856Z,92.07
2023-03-25T18:56:25.281Z,92.71
2023-03-25T18:58:52.632Z,92.15
2023-03-25T19:01:20.532Z,92.32
2023-03-25T19:03:47.841Z,92.83
2023-03-25T19:06:14.627Z,92.78
2023-03-25T19:08:44.005Z,91.73
2023-03-25T19:11:19.894Z,90.92
2023-03-25T19:13:47.207Z,89.57
2023-03-25T19:16:13.631Z,88.38
2023-03-25T19:18:40.203Z,89.07
2023-03-25T19:21:07.111Z,90.04
2023-03-25T19:23:35.071Z,92.50
2023-03-25T19:26:01.453Z,93.93
2023-03-25T19:28:27.945Z,93.11
2023-03-25T19:30:58.538Z,92.70
2023-03-25T19:33:24.945Z,93.67
2023-03-25T19:35:55.257Z,94.68
2023-03-25T19:38:25.728Z,94.68
2023-03-25T19:41:02.255Z,94.68
2023-03-25T19:43:29.150Z,94.05
2023-03-25T19:45:56.489Z,93.85
2023-03-25T19:48:22.910Z,94.39
2023-03-25T19:50:49.445Z,93.16
2023-03-25T19:53:15.936Z,94.19
2023-03-25T19:55:43.909Z,95.03
2023-03-25T19:58:10.981Z,96.10
2023-03-25T20:00:38.406Z,95.55
2023-03-25T20:03:04.914Z,96.12
2023-03-25T20:05:32.326Z,96.16
2023-03-25T20:07:59.151Z,96.46
2023-03-25T20:10:30.641Z,97.53
2023-03-25T20:12:57.833Z,96.69
2023-03-25T20:15:25.345Z,96.98
2023-03-25T20:17:53.978Z,97.41
2023-03-25T20:20:21.470Z,97.08
2023-03-25T20:22:48.502Z,97.55
2023-03-25T20:25:15.806Z,98.05
2023-03-25T20:27:43.299Z,97.10
2023-03-25T20:30:12.919Z,97.61
2023-03-25T20:32:42.512Z,98.53
2023-03-25T20:35:12.451Z,99.17
2023-03-25T20:37:40.414Z,100.00
2023-03-25T20:40:11.240Z,100.00
2023-03-25T20:42:38.789Z,100.00
2023-03-25T20:45:05.833Z,100.00
2023-03-25T20:47:32.652Z,100.00
2023-03-25T20:49:59.078Z,100.00
2023-03-25T20:52:25.742Z,100.00
2023-03-25T20:54:53.086Z,100.00
2023-03-25T20:57:19.523Z,100.00
2023-03-25T20:59:46.106Z,100.00
2023-03-25T21:02:12.566Z,100.00
2023-03-25T21:04:38.973Z,100.00
2023-03-25T21:07:05.893Z,100.00
2023-03-25T21:09:32.495Z,100.00
2023-03-25T21:11:58.885Z,100.00
2023-03-25T21:14:25.628Z,100.00
2023-03-25T21:16:54.225Z,100.00
2023-03-25T21:19:21.128Z,100.00
2023-03-25T21:21:47.526Z,100.00
2023-03-25T21:24:16.648Z,100.00
2023-03-25T21:26:43.084Z,100.00
2023-03-25T21:29:09.479Z,100.00
2023-03-25T21:31:36.172Z,100.00
2023-03-25T21:34:02.705Z,100.00
2023-03-25T21:36:29.718Z,100.00
2023-03-25T21:38:58.350Z,100.00
2023-03-25T21:41:26.151Z,100.00
2023-03-25T21:43:53.263Z,100.00
2023-03-25T21:46:24.233Z,100.00
2023-03-25T21:48:51.293Z,100.00
2023-03-25T21:51:18.216Z,100.00
2023-03-25T21:53:47.521Z,100.00
2023-03-25T21:56:17.396Z,100.00
2023-03-25T21:58:45.097Z,100.00
2023-03-25T22:01:14.417Z,100.00
2023-03-25T22:03:45.204Z,100.00
2023-03-25T22:06:17.738Z,100.00
2023-03-25T22:08:44.557Z,100.00
2023-03-25T22:11:14.122Z,100.00
2023-03-25T22:13:41.249Z,100.00
2023-03-25T22:16:09.142Z,100.00
2023-03-25T22:18:36.874Z,100.00
2023-03-25T22:21:07.319Z,100.00
2023-03-25T22:23:34.312Z,100.00
2023-03-25T22:26:00.699Z,100.00
2023-03-25T22:28:27.116Z,100.00
2023-03-25T22:30:53.681Z,100.00
2023-03-25T22:33:20.910Z,100.00
2023-03-25T22:35:47.321Z,100.00
2023-03-25T22:38:14.741Z,100.00
2023-03-25T22:40:41.131Z,100.00
2023-03-25T22:43:10.649Z,100.00
2023-03-25T22:45:37.043Z,100.00
2023-03-25T22:48:03.789Z,100.00
2023-03-25T22:50:31.424Z,100.00
2023-03-25T22:52:57.858Z,100.00
2023-03-25T22:55:24.273Z,100.00
2023-03-25T22:57:50.754Z,100.00
2023-03-25T23:00:18.036Z,100.00
2023-03-25T23:02:46.831Z,100.00
2023-03-25T23:05:14.753Z,100.00
2023-03-25T23:07:41.344Z,100.00
2023-03-25T23:10:08.069Z,100.00
2023-03-25T23:12:34.647Z,100.00
2023-03-25T23:15:01.783Z,100.00
2023-03-25T23:17:28.236Z,100.00
2023-03-25T23:19:54.862Z,100.00
2023-03-25T23:22:22.171Z,100.00
2023-03-25T23:24:48.582Z,100.00
2023-03-25T23:27:15.279Z,100.00
2023-03-25T23:29:41.803Z,100.00
2023-03-25T23:32:09.458Z,100.00
2023-03-25T23:34:36.557Z,100.00
2023-03-25T23:37:03.239Z,100.00
2023-03-25T23:39:30.345Z,100.00
2023-03-25T23:41:57.116Z,100.00
2023-03-25T23:44:23.529Z,100.00
2023-03-25T23:46:51.229Z,100.00
2023-03-25T23:49:20.611Z,100.00
2023-03-25T23:51:47.445Z,100.00
2023-03-25T23:54:15.311Z,100.00
2023-03-25T23:56:42.838Z,100.00
2023-03-25T23:59:11.630Z,100.00
